sensor_id;sensor_type;location;lat;lon;timestamp;P1;durP1;ratioP1;P2;durP2;ratioP2
62633;SDS011;48704;50.534;6.442;2023-03-01T00:01:09;12.48;;;6.85;;
62633;SDS011;48704;50.534;6.442;2023-03-01T00:03:37;11.45;;;6.75;;
62633;SDS011;48704;50.534;6.442;2023-03-01T00:06:03;11.88;;;7.10;;
62633;SDS011;48704;50.534;6.442;2023-03-01T00:08:29;14.48;;;8.35;;
62633;SDS011;48704;50.534;6.442;2023-03-01T00:13:32;12.57;;;7.28;;
62633;SDS011;48704;50.534;6.442;2023-03-01T00:15:58;10.43;;;6.30;;
62633;SDS011;48704;50.534;6.442;2023-03-01T00:18:23;10.00;;;6.22;;
62633;SDS011;48704;50.534;6.442;2023-03-01T00:20:52;13.10;;;6.40;;
62633;SDS011;48704;50.534;6.442;2023-03-01T00:23:18;11.02;;;6.97;;
62633;SDS011;48704;50.534;6.442;2023-03-01T00:25:44;10.32;;;6.43;;
62633;SDS011;48704;50.534;6.442;2023-03-01T00:28:10;14.23;;;7.38;;
62633;SDS011;48704;50.534;6.442;2023-03-01T00:30:35;16.58;;;9.98;;
62633;SDS011;48704;50.534;6.442;2023-03-01T00:33:00;19.98;;;10.70;;
62633;SDS011;48704;50.534;6.442;2023-03-01T00:35:26;14.57;;;7.40;;
62633;SDS011;48704;50.534;6.442;2023-03-01T00:37:51;14.00;;;8.30;;
62633;SDS011;48704;50.534;6.442;2023-03-01T00:40:22;15.25;;;9.68;;
62633;SDS011;48704;50.534;6.442;2023-03-01T00:42:51;16.88;;;8.13;;
62633;SDS011;48704;50.534;6.442;2023-03-01T00:45:16;12.02;;;7.78;;
62633;SDS011;48704;50.534;6.442;2023-03-01T00:47:42;11.95;;;6.93;;
62633;SDS011;48704;50.534;6.442;2023-03-01T00:50:08;13.00;;;7.55;;
62633;SDS011;48704;50.534;6.442;2023-03-01T00:52:34;12.07;;;7.15;;
62633;SDS011;48704;50.534;6.442;2023-03-01T00:54:59;10.43;;;6.65;;
62633;SDS011;48704;50.534;6.442;2023-03-01T00:57:25;14.18;;;7.53;;
62633;SDS011;48704;50.534;6.442;2023-03-01T00:59:50;12.55;;;7.13;;
62633;SDS011;48704;50.534;6.442;2023-03-01T01:02:17;11.73;;;7.20;;
62633;SDS011;48704;50.534;6.442;2023-03-01T01:04:44;13.95;;;7.35;;
62633;SDS011;48704;50.534;6.442;2023-03-01T01:07:09;12.85;;;6.88;;
62633;SDS011;48704;50.534;6.442;2023-03-01T01:09:35;12.55;;;6.82;;
62633;SDS011;48704;50.534;6.442;2023-03-01T01:12:00;13.07;;;7.43;;
62633;SDS011;48704;50.534;6.442;2023-03-01T01:14:25;13.77;;;7.60;;
62633;SDS011;48704;50.534;6.442;2023-03-01T01:16:51;15.65;;;7.97;;
62633;SDS011;48704;50.534;6.442;2023-03-01T01:19:16;11.82;;;7.18;;
62633;SDS011;48704;50.534;6.442;2023-03-01T01:21:41;15.00;;;7.90;;
62633;SDS011;48704;50.534;6.442;2023-03-01T01:24:09;14.95;;;7.75;;
62633;SDS011;48704;50.534;6.442;2023-03-01T01:26:35;11.60;;;7.18;;
62633;SDS011;48704;50.534;6.442;2023-03-01T01:29:02;15.93;;;7.53;;
62633;SDS011;48704;50.534;6.442;2023-03-01T01:31:28;15.55;;;7.32;;
62633;SDS011;48704;50.534;6.442;2023-03-01T01:33:55;14.82;;;7.15;;
62633;SDS011;48704;50.534;6.442;2023-03-01T01:36:21;11.05;;;7.05;;
62633;SDS011;48704;50.534;6.442;2023-03-01T01:38:47;15.98;;;7.93;;
62633;SDS011;48704;50.534;6.442;2023-03-01T01:41:13;16.40;;;7.68;;
62633;SDS011;48704;50.534;6.442;2023-03-01T01:43:41;13.15;;;7.13;;
62633;SDS011;48704;50.534;6.442;2023-03-01T01:46:23;17.10;;;7.68;;
62633;SDS011;48704;50.534;6.442;2023-03-01T01:48:56;12.23;;;7.20;;
62633;SDS011;48704;50.534;6.442;2023-03-01T01:51:27;15.43;;;8.02;;
62633;SDS011;48704;50.534;6.442;2023-03-01T01:54:03;15.13;;;7.75;;
62633;SDS011;48704;50.534;6.442;2023-03-01T01:56:32;16.17;;;7.85;;
62633;SDS011;48704;50.534;6.442;2023-03-01T01:58:57;13.82;;;7.93;;
62633;SDS011;48704;50.534;6.442;2023-03-01T02:01:23;13.75;;;7.38;;
62633;SDS011;48704;50.534;6.442;2023-03-01T02:03:48;14.65;;;8.43;;
62633;SDS011;48704;50.534;6.442;2023-03-01T02:08:46;13.07;;;7.10;;
62633;SDS011;48704;50.534;6.442;2023-03-01T02:11:14;12.52;;;7.38;;
62633;SDS011;48704;50.534;6.442;2023-03-01T02:13:40;14.07;;;7.13;;
62633;SDS011;48704;50.534;6.442;2023-03-01T02:16:11;13.40;;;6.78;;
62633;SDS011;48704;50.534;6.442;2023-03-01T02:18:38;13.75;;;7.55;;
62633;SDS011;48704;50.534;6.442;2023-03-01T02:23:30;16.50;;;7.57;;
62633;SDS011;48704;50.534;6.442;2023-03-01T02:26:06;17.25;;;8.23;;
62633;SDS011;48704;50.534;6.442;2023-03-01T02:28:38;14.23;;;7.75;;
62633;SDS011;48704;50.534;6.442;2023-03-01T02:31:08;13.25;;;8.43;;
62633;SDS011;48704;50.534;6.442;2023-03-01T02:33:53;14.93;;;7.93;;
62633;SDS011;48704;50.534;6.442;2023-03-01T02:36:21;17.85;;;7.88;;
62633;SDS011;48704;50.534;6.442;2023-03-01T02:38:52;14.32;;;8.05;;
62633;SDS011;48704;50.534;6.442;2023-03-01T02:41:21;14.93;;;7.47;;
62633;SDS011;48704;50.534;6.442;2023-03-01T02:43:48;13.93;;;7.68;;
62633;SDS011;48704;50.534;6.442;2023-03-01T02:46:18;16.83;;;8.05;;
62633;SDS011;48704;50.534;6.442;2023-03-01T02:48:55;18.05;;;8.13;;
62633;SDS011;48704;50.534;6.442;2023-03-01T02:54:33;13.93;;;7.45;;
62633;SDS011;48704;50.534;6.442;2023-03-01T02:57:04;18.00;;;7.80;;
62633;SDS011;48704;50.534;6.442;2023-03-01T02:59:31;13.90;;;7.28;;
62633;SDS011;48704;50.534;6.442;2023-03-01T03:02:04;14.23;;;8.88;;
62633;SDS011;48704;50.534;6.442;2023-03-01T03:04:29;14.70;;;7.53;;
62633;SDS011;48704;50.534;6.442;2023-03-01T03:06:55;12.00;;;6.97;;
62633;SDS011;48704;50.534;6.442;2023-03-01T03:09:20;15.40;;;7.70;;
62633;SDS011;48704;50.534;6.442;2023-03-01T03:11:45;17.05;;;8.95;;
62633;SDS011;48704;50.534;6.442;2023-03-01T03:14:11;15.82;;;8.48;;
62633;SDS011;48704;50.534;6.442;2023-03-01T03:16:39;15.00;;;7.55;;
62633;SDS011;48704;50.534;6.442;2023-03-01T03:19:08;11.05;;;7.55;;
62633;SDS011;48704;50.534;6.442;2023-03-01T03:21:33;16.65;;;7.63;;
62633;SDS011;48704;50.534;6.442;2023-03-01T03:23:59;15.32;;;7.30;;
62633;SDS011;48704;50.534;6.442;2023-03-01T03:26:25;14.15;;;7.40;;
62633;SDS011;48704;50.534;6.442;2023-03-01T03:28:50;16.48;;;7.95;;
62633;SDS011;48704;50.534;6.442;2023-03-01T03:31:17;15.32;;;8.38;;
62633;SDS011;48704;50.534;6.442;2023-03-01T03:33:42;14.13;;;7.60;;
62633;SDS011;48704;50.534;6.442;2023-03-01T03:36:08;15.93;;;7.85;;
62633;SDS011;48704;50.534;6.442;2023-03-01T03:38:38;14.30;;;7.85;;
62633;SDS011;48704;50.534;6.442;2023-03-01T03:41:05;16.50;;;8.65;;
62633;SDS011;48704;50.534;6.442;2023-03-01T03:43:33;13.63;;;8.00;;
62633;SDS011;48704;50.534;6.442;2023-03-01T03:46:00;14.80;;;8.18;;
62633;SDS011;48704;50.534;6.442;2023-03-01T03:48:30;15.52;;;8.57;;
62633;SDS011;48704;50.534;6.442;2023-03-01T03:50:57;17.02;;;8.82;;
62633;SDS011;48704;50.534;6.442;2023-03-01T03:53:23;16.02;;;7.90;;
62633;SDS011;48704;50.534;6.442;2023-03-01T03:55:50;14.55;;;8.02;;
62633;SDS011;48704;50.534;6.442;2023-03-01T03:58:16;18.88;;;8.15;;
62633;SDS011;48704;50.534;6.442;2023-03-01T04:00:44;15.40;;;8.20;;
62633;SDS011;48704;50.534;6.442;2023-03-01T04:03:11;17.88;;;8.00;;
62633;SDS011;48704;50.534;6.442;2023-03-01T04:05:39;16.70;;;8.30;;
62633;SDS011;48704;50.534;6.442;2023-03-01T04:08:05;19.45;;;8.27;;
62633;SDS011;48704;50.534;6.442;2023-03-01T04:13:01;17.67;;;8.20;;
62633;SDS011;48704;50.534;6.442;2023-03-01T04:15:27;16.30;;;8.20;;
62633;SDS011;48704;50.534;6.442;2023-03-01T04:17:53;16.88;;;8.30;;
62633;SDS011;48704;50.534;6.442;2023-03-01T04:20:20;12.98;;;7.15;;
62633;SDS011;48704;50.534;6.442;2023-03-01T04:22:51;16.67;;;9.40;;
62633;SDS011;48704;50.534;6.442;2023-03-01T04:25:22;16.92;;;9.15;;
62633;SDS011;48704;50.534;6.442;2023-03-01T04:27:47;19.45;;;9.68;;
62633;SDS011;48704;50.534;6.442;2023-03-01T04:30:13;18.10;;;8.98;;
62633;SDS011;48704;50.534;6.442;2023-03-01T04:32:38;20.85;;;10.13;;
62633;SDS011;48704;50.534;6.442;2023-03-01T04:35:04;22.42;;;10.07;;
62633;SDS011;48704;50.534;6.442;2023-03-01T04:37:29;18.02;;;9.25;;
62633;SDS011;48704;50.534;6.442;2023-03-01T04:39:54;19.25;;;9.55;;
62633;SDS011;48704;50.534;6.442;2023-03-01T04:42:20;18.23;;;9.68;;
62633;SDS011;48704;50.534;6.442;2023-03-01T04:44:45;17.10;;;8.75;;
62633;SDS011;48704;50.534;6.442;2023-03-01T04:47:11;17.95;;;9.57;;
62633;SDS011;48704;50.534;6.442;2023-03-01T04:49:37;17.33;;;9.00;;
62633;SDS011;48704;50.534;6.442;2023-03-01T04:52:03;17.00;;;9.07;;
62633;SDS011;48704;50.534;6.442;2023-03-01T04:54:29;17.77;;;8.70;;
62633;SDS011;48704;50.534;6.442;2023-03-01T04:56:56;16.52;;;8.40;;
62633;SDS011;48704;50.534;6.442;2023-03-01T04:59:22;17.15;;;8.65;;
62633;SDS011;48704;50.534;6.442;2023-03-01T05:01:50;15.93;;;8.98;;
62633;SDS011;48704;50.534;6.442;2023-03-01T05:04:17;15.77;;;8.68;;
62633;SDS011;48704;50.534;6.442;2023-03-01T05:06:42;19.50;;;9.20;;
62633;SDS011;48704;50.534;6.442;2023-03-01T05:09:08;14.80;;;8.38;;
62633;SDS011;48704;50.534;6.442;2023-03-01T05:11:33;18.15;;;9.40;;
62633;SDS011;48704;50.534;6.442;2023-03-01T05:14:01;22.13;;;8.70;;
62633;SDS011;48704;50.534;6.442;2023-03-01T05:16:27;17.80;;;8.80;;
62633;SDS011;48704;50.534;6.442;2023-03-01T05:18:52;22.20;;;9.40;;
62633;SDS011;48704;50.534;6.442;2023-03-01T05:21:20;20.73;;;9.18;;
62633;SDS011;48704;50.534;6.442;2023-03-01T05:23:46;17.23;;;8.90;;
62633;SDS011;48704;50.534;6.442;2023-03-01T05:26:12;20.05;;;10.40;;
62633;SDS011;48704;50.534;6.442;2023-03-01T05:28:38;18.02;;;8.02;;
62633;SDS011;48704;50.534;6.442;2023-03-01T05:31:03;20.67;;;9.20;;
62633;SDS011;48704;50.534;6.442;2023-03-01T05:33:34;18.17;;;8.95;;
62633;SDS011;48704;50.534;6.442;2023-03-01T05:36:01;17.25;;;8.18;;
62633;SDS011;48704;50.534;6.442;2023-03-01T05:38:26;18.85;;;9.45;;
62633;SDS011;48704;50.534;6.442;2023-03-01T05:40:51;18.45;;;8.43;;
62633;SDS011;48704;50.534;6.442;2023-03-01T05:43:17;19.08;;;8.02;;
62633;SDS011;48704;50.534;6.442;2023-03-01T05:45:43;16.67;;;8.27;;
62633;SDS011;48704;50.534;6.442;2023-03-01T05:48:09;19.65;;;8.65;;
62633;SDS011;48704;50.534;6.442;2023-03-01T05:50:37;18.98;;;8.55;;
62633;SDS011;48704;50.534;6.442;2023-03-01T05:53:09;19.13;;;9.18;;
62633;SDS011;48704;50.534;6.442;2023-03-01T05:55:37;15.52;;;8.80;;
62633;SDS011;48704;50.534;6.442;2023-03-01T05:58:04;19.58;;;9.35;;
62633;SDS011;48704;50.534;6.442;2023-03-01T06:00:31;16.50;;;8.43;;
62633;SDS011;48704;50.534;6.442;2023-03-01T06:02:57;19.75;;;9.70;;
62633;SDS011;48704;50.534;6.442;2023-03-01T06:05:24;16.77;;;8.63;;
62633;SDS011;48704;50.534;6.442;2023-03-01T06:07:50;16.48;;;8.57;;
62633;SDS011;48704;50.534;6.442;2023-03-01T06:10:16;20.55;;;9.20;;
62633;SDS011;48704;50.534;6.442;2023-03-01T06:12:43;22.10;;;9.15;;
62633;SDS011;48704;50.534;6.442;2023-03-01T06:15:09;18.42;;;9.32;;
62633;SDS011;48704;50.534;6.442;2023-03-01T06:17:38;21.10;;;9.77;;
62633;SDS011;48704;50.534;6.442;2023-03-01T06:20:06;16.17;;;8.35;;
62633;SDS011;48704;50.534;6.442;2023-03-01T06:22:39;20.08;;;9.38;;
62633;SDS011;48704;50.534;6.442;2023-03-01T06:25:05;21.45;;;10.07;;
62633;SDS011;48704;50.534;6.442;2023-03-01T06:27:31;22.63;;;9.40;;
62633;SDS011;48704;50.534;6.442;2023-03-01T06:29:56;19.42;;;9.88;;
62633;SDS011;48704;50.534;6.442;2023-03-01T06:32:22;18.05;;;8.55;;
62633;SDS011;48704;50.534;6.442;2023-03-01T06:34:47;14.63;;;8.25;;
62633;SDS011;48704;50.534;6.442;2023-03-01T06:37:13;17.83;;;9.13;;
62633;SDS011;48704;50.534;6.442;2023-03-01T06:39:38;27.58;;;10.82;;
62633;SDS011;48704;50.534;6.442;2023-03-01T06:42:04;19.17;;;9.68;;
62633;SDS011;48704;50.534;6.442;2023-03-01T06:44:29;19.77;;;9.85;;
62633;SDS011;48704;50.534;6.442;2023-03-01T06:46:55;18.85;;;9.65;;
62633;SDS011;48704;50.534;6.442;2023-03-01T06:49:20;19.92;;;9.60;;
62633;SDS011;48704;50.534;6.442;2023-03-01T06:51:46;19.55;;;9.13;;
62633;SDS011;48704;50.534;6.442;2023-03-01T06:54:11;20.23;;;9.88;;
62633;SDS011;48704;50.534;6.442;2023-03-01T06:56:37;17.90;;;9.40;;
62633;SDS011;48704;50.534;6.442;2023-03-01T06:59:02;19.63;;;9.52;;
62633;SDS011;48704;50.534;6.442;2023-03-01T07:01:28;18.83;;;9.75;;
62633;SDS011;48704;50.534;6.442;2023-03-01T07:03:54;16.38;;;9.18;;
62633;SDS011;48704;50.534;6.442;2023-03-01T07:06:19;18.42;;;9.73;;
62633;SDS011;48704;50.534;6.442;2023-03-01T07:08:45;19.90;;;10.38;;
62633;SDS011;48704;50.534;6.442;2023-03-01T07:11:11;17.95;;;9.35;;
62633;SDS011;48704;50.534;6.442;2023-03-01T07:13:36;18.15;;;8.90;;
62633;SDS011;48704;50.534;6.442;2023-03-01T07:16:01;18.05;;;9.07;;
62633;SDS011;48704;50.534;6.442;2023-03-01T07:18:26;19.50;;;9.25;;
62633;SDS011;48704;50.534;6.442;2023-03-01T07:20:52;19.55;;;10.38;;
62633;SDS011;48704;50.534;6.442;2023-03-01T07:23:17;21.42;;;10.40;;
62633;SDS011;48704;50.534;6.442;2023-03-01T07:25:43;17.48;;;9.77;;
62633;SDS011;48704;50.534;6.442;2023-03-01T07:28:08;20.95;;;10.43;;
62633;SDS011;48704;50.534;6.442;2023-03-01T07:30:34;18.95;;;10.10;;
62633;SDS011;48704;50.534;6.442;2023-03-01T07:32:59;21.85;;;10.10;;
62633;SDS011;48704;50.534;6.442;2023-03-01T07:35:25;20.20;;;9.93;;
62633;SDS011;48704;50.534;6.442;2023-03-01T07:37:51;17.15;;;9.88;;
62633;SDS011;48704;50.534;6.442;2023-03-01T07:40:17;20.05;;;9.82;;
62633;SDS011;48704;50.534;6.442;2023-03-01T07:42:42;22.15;;;10.05;;
62633;SDS011;48704;50.534;6.442;2023-03-01T07:45:07;20.50;;;10.32;;
62633;SDS011;48704;50.534;6.442;2023-03-01T07:47:33;17.30;;;9.98;;
62633;SDS011;48704;50.534;6.442;2023-03-01T07:49:59;21.05;;;10.43;;
62633;SDS011;48704;50.534;6.442;2023-03-01T07:52:26;19.05;;;9.80;;
62633;SDS011;48704;50.534;6.442;2023-03-01T07:54:51;22.75;;;11.02;;
62633;SDS011;48704;50.534;6.442;2023-03-01T07:57:17;22.73;;;10.20;;
62633;SDS011;48704;50.534;6.442;2023-03-01T07:59:42;22.83;;;10.57;;
62633;SDS011;48704;50.534;6.442;2023-03-01T08:02:08;23.27;;;10.30;;
62633;SDS011;48704;50.534;6.442;2023-03-01T08:04:33;24.73;;;12.05;;
62633;SDS011;48704;50.534;6.442;2023-03-01T08:06:58;21.95;;;10.35;;
62633;SDS011;48704;50.534;6.442;2023-03-01T08:09:24;21.70;;;10.68;;
62633;SDS011;48704;50.534;6.442;2023-03-01T08:11:49;21.13;;;10.35;;
62633;SDS011;48704;50.534;6.442;2023-03-01T08:14:15;22.27;;;10.43;;
62633;SDS011;48704;50.534;6.442;2023-03-01T08:16:40;18.42;;;9.43;;
62633;SDS011;48704;50.534;6.442;2023-03-01T08:19:06;22.67;;;10.48;;
62633;SDS011;48704;50.534;6.442;2023-03-01T08:21:33;21.98;;;10.65;;
62633;SDS011;48704;50.534;6.442;2023-03-01T08:23:59;19.05;;;9.98;;
62633;SDS011;48704;50.534;6.442;2023-03-01T08:26:25;22.25;;;10.98;;
62633;SDS011;48704;50.534;6.442;2023-03-01T08:28:51;22.27;;;10.60;;
62633;SDS011;48704;50.534;6.442;2023-03-01T08:31:17;20.02;;;9.32;;
62633;SDS011;48704;50.534;6.442;2023-03-01T08:33:45;22.58;;;11.02;;
62633;SDS011;48704;50.534;6.442;2023-03-01T08:36:15;22.08;;;11.65;;
62633;SDS011;48704;50.534;6.442;2023-03-01T08:38:41;23.63;;;11.38;;
62633;SDS011;48704;50.534;6.442;2023-03-01T08:41:06;22.27;;;10.68;;
62633;SDS011;48704;50.534;6.442;2023-03-01T08:43:32;23.33;;;10.85;;
62633;SDS011;48704;50.534;6.442;2023-03-01T08:45:57;20.77;;;10.68;;
62633;SDS011;48704;50.534;6.442;2023-03-01T08:48:22;20.13;;;10.82;;
62633;SDS011;48704;50.534;6.442;2023-03-01T08:50:48;21.17;;;11.20;;
62633;SDS011;48704;50.534;6.442;2023-03-01T08:53:13;23.00;;;10.30;;
62633;SDS011;48704;50.534;6.442;2023-03-01T08:55:38;19.95;;;10.15;;
62633;SDS011;48704;50.534;6.442;2023-03-01T08:58:04;22.92;;;10.98;;
62633;SDS011;48704;50.534;6.442;2023-03-01T09:00:29;26.33;;;10.80;;
62633;SDS011;48704;50.534;6.442;2023-03-01T09:02:54;23.40;;;11.15;;
62633;SDS011;48704;50.534;6.442;2023-03-01T09:05:19;22.70;;;10.07;;
62633;SDS011;48704;50.534;6.442;2023-03-01T09:07:45;23.23;;;11.07;;
62633;SDS011;48704;50.534;6.442;2023-03-01T09:10:10;25.35;;;11.85;;
62633;SDS011;48704;50.534;6.442;2023-03-01T09:12:35;20.60;;;11.02;;
62633;SDS011;48704;50.534;6.442;2023-03-01T09:15:01;23.92;;;11.65;;
62633;SDS011;48704;50.534;6.442;2023-03-01T09:17:26;21.88;;;11.00;;
62633;SDS011;48704;50.534;6.442;2023-03-01T09:19:52;25.95;;;11.70;;
62633;SDS011;48704;50.534;6.442;2023-03-01T09:22:17;23.40;;;10.98;;
62633;SDS011;48704;50.534;6.442;2023-03-01T09:24:42;24.05;;;11.40;;
62633;SDS011;48704;50.534;6.442;2023-03-01T09:27:08;25.02;;;11.30;;
62633;SDS011;48704;50.534;6.442;2023-03-01T09:29:34;25.08;;;11.63;;
62633;SDS011;48704;50.534;6.442;2023-03-01T09:32:00;22.88;;;11.50;;
62633;SDS011;48704;50.534;6.442;2023-03-01T09:34:26;25.77;;;11.30;;
62633;SDS011;48704;50.534;6.442;2023-03-01T09:36:51;20.67;;;10.70;;
62633;SDS011;48704;50.534;6.442;2023-03-01T09:39:17;23.35;;;11.45;;
62633;SDS011;48704;50.534;6.442;2023-03-01T09:41:47;25.08;;;11.52;;
62633;SDS011;48704;50.534;6.442;2023-03-01T09:44:25;22.08;;;10.93;;
62633;SDS011;48704;50.534;6.442;2023-03-01T09:46:52;26.05;;;11.38;;
62633;SDS011;48704;50.534;6.442;2023-03-01T09:49:24;23.15;;;11.52;;
62633;SDS011;48704;50.534;6.442;2023-03-01T09:54:23;23.50;;;11.70;;
62633;SDS011;48704;50.534;6.442;2023-03-01T09:59:40;21.63;;;12.73;;
62633;SDS011;48704;50.534;6.442;2023-03-01T10:05:47;19.85;;;10.73;;
62633;SDS011;48704;50.534;6.442;2023-03-01T10:07:58;24.73;;;11.18;;
62633;SDS011;48704;50.534;6.442;2023-03-01T10:10:38;26.40;;;11.93;;
62633;SDS011;48704;50.534;6.442;2023-03-01T10:13:27;20.05;;;11.25;;
62633;SDS011;48704;50.534;6.442;2023-03-01T10:15:55;24.10;;;11.23;;
62633;SDS011;48704;50.534;6.442;2023-03-01T10:18:27;22.35;;;11.85;;
62633;SDS011;48704;50.534;6.442;2023-03-01T10:21:01;22.35;;;11.88;;
62633;SDS011;48704;50.534;6.442;2023-03-01T10:23:33;21.60;;;11.70;;
62633;SDS011;48704;50.534;6.442;2023-03-01T10:26:09;20.73;;;11.40;;
62633;SDS011;48704;50.534;6.442;2023-03-01T10:31:48;22.50;;;11.90;;
62633;SDS011;48704;50.534;6.442;2023-03-01T10:34:16;24.17;;;11.90;;
62633;SDS011;48704;50.534;6.442;2023-03-01T10:36:43;19.67;;;11.68;;
62633;SDS011;48704;50.534;6.442;2023-03-01T10:39:14;23.60;;;12.98;;
62633;SDS011;48704;50.534;6.442;2023-03-01T10:41:52;19.90;;;11.90;;
62633;SDS011;48704;50.534;6.442;2023-03-01T10:44:36;23.40;;;12.20;;
62633;SDS011;48704;50.534;6.442;2023-03-01T10:47:01;21.42;;;12.45;;
62633;SDS011;48704;50.534;6.442;2023-03-01T10:49:27;21.67;;;12.15;;
62633;SDS011;48704;50.534;6.442;2023-03-01T10:51:53;26.98;;;12.65;;
62633;SDS011;48704;50.534;6.442;2023-03-01T10:54:23;25.42;;;12.18;;
62633;SDS011;48704;50.534;6.442;2023-03-01T10:56:53;24.98;;;12.55;;
62633;SDS011;48704;50.534;6.442;2023-03-01T10:59:34;22.85;;;12.50;;
62633;SDS011;48704;50.534;6.442;2023-03-01T11:02:13;21.58;;;11.82;;
62633;SDS011;48704;50.534;6.442;2023-03-01T11:07:47;23.55;;;12.60;;
62633;SDS011;48704;50.534;6.442;2023-03-01T11:10:18;19.77;;;11.23;;
62633;SDS011;48704;50.534;6.442;2023-03-01T11:12:44;21.85;;;12.10;;
62633;SDS011;48704;50.534;6.442;2023-03-01T11:15:19;22.15;;;12.10;;
62633;SDS011;48704;50.534;6.442;2023-03-01T11:17:53;22.73;;;13.00;;
62633;SDS011;48704;50.534;6.442;2023-03-01T11:20:23;23.05;;;11.68;;
62633;SDS011;48704;50.534;6.442;2023-03-01T11:25:27;21.33;;;12.27;;
62633;SDS011;48704;50.534;6.442;2023-03-01T11:27:56;22.80;;;11.90;;
62633;SDS011;48704;50.534;6.442;2023-03-01T11:30:28;19.00;;;12.05;;
62633;SDS011;48704;50.534;6.442;2023-03-01T11:35:47;22.10;;;12.32;;
62633;SDS011;48704;50.534;6.442;2023-03-01T11:38:24;22.05;;;12.40;;
62633;SDS011;48704;50.534;6.442;2023-03-01T11:40:52;20.90;;;12.18;;
62633;SDS011;48704;50.534;6.442;2023-03-01T11:43:43;21.58;;;12.63;;
62633;SDS011;48704;50.534;6.442;2023-03-01T11:49:00;19.38;;;11.07;;
62633;SDS011;48704;50.534;6.442;2023-03-01T12:04:30;18.48;;;11.13;;
62633;SDS011;48704;50.534;6.442;2023-03-01T12:07:00;18.17;;;11.15;;
62633;SDS011;48704;50.534;6.442;2023-03-01T12:10:29;21.77;;;11.65;;
62633;SDS011;48704;50.534;6.442;2023-03-01T12:18:35;21.00;;;11.50;;
62633;SDS011;48704;50.534;6.442;2023-03-01T12:21:21;19.60;;;12.10;;
62633;SDS011;48704;50.534;6.442;2023-03-01T12:45:35;21.63;;;12.80;;
62633;SDS011;48704;50.534;6.442;2023-03-01T12:50:53;21.55;;;12.82;;
62633;SDS011;48704;50.534;6.442;2023-03-01T12:53:24;21.63;;;12.77;;
62633;SDS011;48704;50.534;6.442;2023-03-01T12:56:01;23.35;;;13.52;;
62633;SDS011;48704;50.534;6.442;2023-03-01T13:15:24;24.88;;;12.52;;
62633;SDS011;48704;50.534;6.442;2023-03-01T13:17:52;25.17;;;14.48;;
62633;SDS011;48704;50.534;6.442;2023-03-01T13:20:20;22.38;;;12.95;;
62633;SDS011;48704;50.534;6.442;2023-03-01T13:22:48;25.20;;;13.27;;
62633;SDS011;48704;50.534;6.442;2023-03-01T13:26:05;22.88;;;12.48;;
62633;SDS011;48704;50.534;6.442;2023-03-01T13:28:53;22.83;;;11.40;;
62633;SDS011;48704;50.534;6.442;2023-03-01T13:33:50;18.77;;;11.73;;
62633;SDS011;48704;50.534;6.442;2023-03-01T13:36:49;23.88;;;12.00;;
62633;SDS011;48704;50.534;6.442;2023-03-01T13:39:28;20.45;;;11.27;;
62633;SDS011;48704;50.534;6.442;2023-03-01T13:42:00;23.13;;;12.13;;
62633;SDS011;48704;50.534;6.442;2023-03-01T13:44:30;21.80;;;11.45;;
62633;SDS011;48704;50.534;6.442;2023-03-01T13:49:56;17.92;;;10.98;;
62633;SDS011;48704;50.534;6.442;2023-03-01T13:55:18;18.38;;;10.18;;
62633;SDS011;48704;50.534;6.442;2023-03-01T13:57:49;18.10;;;11.27;;
62633;SDS011;48704;50.534;6.442;2023-03-01T14:09:05;17.65;;;9.77;;
62633;SDS011;48704;50.534;6.442;2023-03-01T14:14:36;22.15;;;11.25;;
62633;SDS011;48704;50.534;6.442;2023-03-01T14:19:45;19.55;;;10.25;;
62633;SDS011;48704;50.534;6.442;2023-03-01T14:24:52;17.13;;;9.93;;
62633;SDS011;48704;50.534;6.442;2023-03-01T14:27:20;18.42;;;10.05;;
62633;SDS011;48704;50.534;6.442;2023-03-01T14:29:59;19.75;;;10.73;;
62633;SDS011;48704;50.534;6.442;2023-03-01T14:32:30;17.50;;;10.50;;
62633;SDS011;48704;50.534;6.442;2023-03-01T14:34:57;19.75;;;10.20;;
62633;SDS011;48704;50.534;6.442;2023-03-01T14:39:54;15.45;;;9.57;;
62633;SDS011;48704;50.534;6.442;2023-03-01T14:42:20;19.63;;;10.82;;
62633;SDS011;48704;50.534;6.442;2023-03-01T14:44:47;19.27;;;10.52;;
62633;SDS011;48704;50.534;6.442;2023-03-01T14:47:25;19.33;;;10.95;;
62633;SDS011;48704;50.534;6.442;2023-03-01T14:49:57;20.05;;;10.75;;
62633;SDS011;48704;50.534;6.442;2023-03-01T14:52:48;20.25;;;10.98;;
62633;SDS011;48704;50.534;6.442;2023-03-01T14:55:15;23.95;;;11.25;;
62633;SDS011;48704;50.534;6.442;2023-03-01T14:57:43;17.40;;;10.40;;
62633;SDS011;48704;50.534;6.442;2023-03-01T15:00:16;22.25;;;10.27;;
62633;SDS011;48704;50.534;6.442;2023-03-01T15:02:54;16.70;;;9.80;;
62633;SDS011;48704;50.534;6.442;2023-03-01T15:05:29;16.00;;;9.75;;
62633;SDS011;48704;50.534;6.442;2023-03-01T15:07:57;16.85;;;9.60;;
62633;SDS011;48704;50.534;6.442;2023-03-01T15:10:26;20.45;;;9.27;;
62633;SDS011;48704;50.534;6.442;2023-03-01T15:12:53;17.20;;;9.23;;
62633;SDS011;48704;50.534;6.442;2023-03-01T15:15:26;17.60;;;9.30;;
62633;SDS011;48704;50.534;6.442;2023-03-01T15:17:56;15.18;;;8.98;;
62633;SDS011;48704;50.534;6.442;2023-03-01T15:20:25;14.75;;;9.13;;
62633;SDS011;48704;50.534;6.442;2023-03-01T15:22:54;16.25;;;8.98;;
62633;SDS011;48704;50.534;6.442;2023-03-01T15:25:21;16.95;;;9.13;;
62633;SDS011;48704;50.534;6.442;2023-03-01T15:27:49;17.52;;;9.18;;
62633;SDS011;48704;50.534;6.442;2023-03-01T15:32:48;13.73;;;7.88;;
62633;SDS011;48704;50.534;6.442;2023-03-01T15:35:51;14.38;;;8.23;;
62633;SDS011;48704;50.534;6.442;2023-03-01T15:38:49;14.63;;;8.68;;
62633;SDS011;48704;50.534;6.442;2023-03-01T15:43:52;11.73;;;8.50;;
62633;SDS011;48704;50.534;6.442;2023-03-01T15:46:23;15.85;;;8.73;;
62633;SDS011;48704;50.534;6.442;2023-03-01T15:48:53;14.60;;;8.57;;
62633;SDS011;48704;50.534;6.442;2023-03-01T15:51:31;12.20;;;8.00;;
62633;SDS011;48704;50.534;6.442;2023-03-01T15:53:59;16.85;;;8.57;;
62633;SDS011;48704;50.534;6.442;2023-03-01T15:56:28;14.93;;;8.68;;
62633;SDS011;48704;50.534;6.442;2023-03-01T15:58:56;15.55;;;8.93;;
62633;SDS011;48704;50.534;6.442;2023-03-01T16:01:23;15.02;;;9.43;;
62633;SDS011;48704;50.534;6.442;2023-03-01T16:03:48;15.32;;;8.93;;
62633;SDS011;48704;50.534;6.442;2023-03-01T16:06:13;17.25;;;9.27;;
62633;SDS011;48704;50.534;6.442;2023-03-01T16:08:39;18.77;;;10.80;;
62633;SDS011;48704;50.534;6.442;2023-03-01T16:11:05;14.48;;;9.25;;
62633;SDS011;48704;50.534;6.442;2023-03-01T16:13:38;16.63;;;8.40;;
62633;SDS011;48704;50.534;6.442;2023-03-01T16:16:04;15.80;;;8.63;;
62633;SDS011;48704;50.534;6.442;2023-03-01T16:18:29;17.48;;;9.50;;
62633;SDS011;48704;50.534;6.442;2023-03-01T16:20:54;17.52;;;9.20;;
62633;SDS011;48704;50.534;6.442;2023-03-01T16:23:20;17.90;;;10.10;;
62633;SDS011;48704;50.534;6.442;2023-03-01T16:25:46;16.10;;;9.23;;
62633;SDS011;48704;50.534;6.442;2023-03-01T16:28:11;17.83;;;9.48;;
62633;SDS011;48704;50.534;6.442;2023-03-01T16:30:37;18.50;;;9.88;;
62633;SDS011;48704;50.534;6.442;2023-03-01T16:33:04;18.08;;;9.75;;
62633;SDS011;48704;50.534;6.442;2023-03-01T16:35:33;15.07;;;9.75;;
62633;SDS011;48704;50.534;6.442;2023-03-01T16:38:04;18.77;;;9.15;;
62633;SDS011;48704;50.534;6.442;2023-03-01T16:40:30;19.30;;;9.50;;
62633;SDS011;48704;50.534;6.442;2023-03-01T16:42:55;16.17;;;9.88;;
62633;SDS011;48704;50.534;6.442;2023-03-01T16:45:24;16.08;;;9.73;;